createdAt,value
2018-05-15T00:00:39.061Z,10.10
2018-05-15T00:03:06.585Z,10.40
2018-05-15T00:05:34.152Z,10.70
2018-05-15T00:08:02.445Z,11.60
2018-05-15T00:10:30.765Z,11.20
2018-05-15T00:12:58.299Z,12.83
2018-05-15T00:15:25.863Z,13.43
2018-05-15T00:17:54.606Z,15.27
2018-05-15T00:20:22.147Z,13.07
2018-05-15T00:22:49.686Z,15.83
2018-05-15T00:25:17.241Z,16.27
2018-05-15T00:27:44.806Z,15.87
2018-05-15T00:30:12.368Z,14.37
2018-05-15T00:32:41.861Z,15.10
2018-05-15T00:35:09.424Z,14.73
2018-05-15T00:37:36.984Z,15.37
2018-05-15T00:40:04.557Z,16.10
2018-05-15T00:42:32.093Z,18.17
2018-05-15T00:44:59.651Z,17.77
2018-05-15T00:47:28.629Z,17.43
2018-05-15T00:49:56.226Z,19.20
2018-05-15T00:52:23.756Z,20.03
2018-05-15T00:54:51.297Z,19.30
2018-05-15T00:57:18.859Z,19.57
2018-05-15T00:59:46.387Z,18.93
2018-05-15T01:02:13.941Z,19.80
2018-05-15T01:04:41.477Z,18.90
2018-05-15T01:07:09.042Z,17.87
2018-05-15T01:09:37.527Z,16.70
2018-05-15T01:12:05.060Z,15.00
2018-05-15T01:14:32.613Z,15.00
2018-05-15T01:17:00.141Z,14.67
2018-05-15T01:19:28.466Z,14.80
2018-05-15T01:21:55.990Z,13.70
2018-05-15T01:24:23.550Z,14.37
2018-05-15T01:26:51.077Z,14.67
2018-05-15T01:29:18.598Z,14.07
2018-05-15T01:31:46.161Z,13.27
2018-05-15T01:34:13.692Z,15.00
2018-05-15T01:36:41.253Z,15.20
2018-05-15T01:39:08.789Z,15.30
2018-05-15T01:41:36.313Z,15.80
2018-05-15T01:44:03.872Z,14.60
2018-05-15T01:46:31.414Z,14.80
2018-05-15T01:49:00.017Z,15.40
2018-05-15T01:51:27.550Z,14.27
2018-05-15T01:53:55.129Z,14.60
2018-05-15T01:56:22.685Z,14.40
2018-05-15T01:58:50.259Z,15.37
2018-05-15T02:01:18.547Z,14.10
2018-05-15T02:03:46.843Z,14.30
2018-05-15T02:06:14.397Z,13.63
2018-05-15T02:08:41.943Z,13.43
2018-05-15T02:11:09.514Z,14.07
2018-05-15T02:13:37.805Z,13.60
2018-05-15T02:16:05.363Z,14.90
2018-05-15T02:18:32.918Z,15.50
2018-05-15T02:21:00.488Z,16.47
2018-05-15T02:23:28.046Z,16.30
2018-05-15T02:25:55.623Z,17.57
2018-05-15T02:28:23.145Z,17.93
2018-05-15T02:30:51.454Z,15.80
2018-05-15T02:33:19.029Z,17.13
2018-05-15T02:35:46.602Z,16.90
2018-05-15T02:38:14.163Z,18.23
2018-05-15T02:40:41.702Z,16.10
2018-05-15T02:43:10.204Z,15.60
2018-05-15T02:45:38.537Z,15.40
2018-05-15T02:48:06.068Z,14.60
2018-05-15T02:50:33.628Z,13.57
2018-05-15T02:53:03.125Z,15.30
2018-05-15T02:55:31.422Z,16.47
2018-05-15T02:57:59.114Z,18.80
2018-05-15T03:00:26.700Z,19.30
2018-05-15T03:02:54.253Z,18.53
2018-05-15T03:05:21.819Z,19.70
2018-05-15T03:07:50.143Z,18.87
2018-05-15T03:10:17.672Z,19.50
2018-05-15T03:12:45.972Z,20.23
2018-05-15T03:15:15.217Z,20.37
2018-05-15T03:17:42.757Z,22.00
2018-05-15T03:20:10.281Z,22.00
2018-05-15T03:22:38.602Z,21.00
2018-05-15T03:25:06.133Z,22.43
2018-05-15T03:27:33.704Z,23.80
2018-05-15T03:30:01.265Z,21.53
2018-05-15T03:32:28.798Z,23.15
2018-05-15T03:34:57.102Z,25.00
2018-05-15T03:37:24.673Z,24.67
2018-05-15T03:39:52.201Z,25.93
2018-05-15T03:42:19.760Z,26.30
2018-05-15T03:44:47.335Z,26.10
2018-05-15T03:47:14.902Z,25.47
2018-05-15T03:49:42.557Z,26.77
2018-05-15T03:52:10.129Z,28.13
2018-05-15T03:54:37.681Z,28.70
2018-05-15T03:57:05.217Z,26.20
2018-05-15T03:59:32.745Z,27.50
2018-05-15T04:02:12.249Z,26.90
2018-05-15T04:04:51.636Z,27.40
2018-05-15T04:07:31.041Z,24.77
2018-05-15T04:09:59.581Z,24.20
2018-05-15T04:12:27.112Z,23.93
2018-05-15T04:14:55.439Z,23.23
2018-05-15T04:17:22.998Z,24.00
2018-05-15T04:19:50.558Z,23.27
2018-05-15T04:22:18.085Z,24.80
2018-05-15T04:24:45.622Z,22.70
2018-05-15T04:27:13.185Z,22.87
2018-05-15T04:29:41.806Z,22.83
2018-05-15T04:32:09.409Z,23.23
2018-05-15T04:34:37.917Z,20.87
2018-05-15T04:37:05.453Z,22.05
2018-05-15T04:39:33.017Z,23.23
2018-05-15T04:42:01.345Z,24.53
2018-05-15T04:44:28.919Z,23.03
2018-05-15T04:46:56.453Z,21.60
2018-05-15T04:49:24.068Z,22.07
2018-05-15T04:51:51.562Z,21.93
2018-05-15T04:54:19.093Z,18.90
2018-05-15T04:56:47.412Z,18.07
2018-05-15T04:59:14.941Z,19.70
2018-05-15T05:01:42.506Z,17.70
2018-05-15T05:04:11.020Z,19.20
2018-05-15T05:06:38.621Z,18.67
2018-05-15T05:09:06.144Z,19.40
2018-05-15T05:11:35.658Z,20.10
2018-05-15T05:14:03.225Z,21.63
2018-05-15T05:16:30.758Z,19.33
2018-05-15T05:18:58.338Z,19.47
2018-05-15T05:21:25.869Z,19.17
2018-05-15T05:23:53.529Z,19.50
2018-05-15T05:26:21.070Z,18.53
2018-05-15T05:28:48.601Z,19.13
2018-05-15T05:31:16.172Z,18.70
2018-05-15T05:33:44.581Z,18.50
2018-05-15T05:36:13.123Z,19.20
2018-05-15T05:38:41.632Z,18.43
2018-05-15T05:41:09.190Z,18.30
2018-05-15T05:43:36.718Z,18.47
2018-05-15T05:46:06.217Z,19.13
2018-05-15T05:48:34.698Z,20.10
2018-05-15T05:51:04.172Z,20.83
2018-05-15T05:53:31.734Z,19.60
2018-05-15T05:55:59.272Z,19.60
2018-05-15T05:58:26.831Z,19.57
2018-05-15T06:00:54.398Z,18.07
2018-05-15T06:03:21.967Z,17.60
2018-05-15T06:05:49.510Z,21.90
2018-05-15T06:08:19.056Z,18.23
2018-05-15T06:10:47.387Z,17.10
2018-05-15T06:13:14.924Z,17.70
2018-05-15T06:15:43.245Z,19.80
2018-05-15T06:18:10.803Z,18.73
2018-05-15T06:20:38.413Z,19.77
2018-05-15T06:23:06.686Z,18.90
2018-05-15T06:25:34.236Z,20.93
2018-05-15T06:28:01.795Z,19.90
2018-05-15T06:30:29.329Z,18.53
2018-05-15T06:32:56.904Z,18.30
2018-05-15T06:35:24.524Z,19.57
2018-05-15T06:37:52.079Z,19.07
2018-05-15T06:40:19.786Z,18.13
2018-05-15T06:42:47.354Z,17.30
2018-05-15T06:45:14.884Z,16.27
2018-05-15T06:47:42.414Z,16.50
2018-05-15T06:50:10.181Z,17.70
2018-05-15T06:52:37.845Z,17.10
2018-05-15T06:55:05.609Z,17.97
2018-05-15T06:57:33.170Z,18.10
2018-05-15T07:00:00.736Z,18.30
2018-05-15T07:02:28.285Z,17.20
2018-05-15T07:04:55.845Z,17.83
2018-05-15T07:07:23.388Z,18.00
2018-05-15T07:09:51.176Z,19.33
2018-05-15T07:12:18.736Z,17.97
2018-05-15T07:14:46.265Z,17.53
2018-05-15T07:17:13.825Z,15.67
2018-05-15T07:19:41.352Z,15.07
2018-05-15T07:22:09.692Z,14.80
2018-05-15T07:24:38.184Z,13.33
2018-05-15T07:27:05.737Z,14.15
2018-05-15T07:29:33.301Z,13.03
2018-05-15T07:32:00.849Z,12.93
2018-05-15T07:34:28.423Z,11.30
2018-05-15T07:36:56.003Z,12.83
2018-05-15T07:39:23.573Z,13.13
2018-05-15T07:41:51.124Z,13.90
2018-05-15T07:44:18.690Z,16.80
2018-05-15T07:46:46.219Z,15.33
2018-05-15T07:49:15.759Z,14.70
2018-05-15T07:51:44.244Z,14.90
2018-05-15T07:54:11.794Z,15.40
2018-05-15T07:56:39.328Z,14.73
2018-05-15T07:59:06.861Z,14.30
2018-05-15T08:01:34.445Z,17.53
2018-05-15T08:04:01.984Z,17.03
2018-05-15T08:06:29.550Z,17.10
2018-05-15T08:08:57.082Z,16.90
2018-05-15T08:11:24.632Z,16.80
2018-05-15T08:13:52.157Z,16.40
2018-05-15T08:16:19.816Z,16.70
2018-05-15T08:18:47.313Z,17.73
2018-05-15T08:21:14.879Z,17.73
2018-05-15T08:23:42.433Z,16.83
2018-05-15T08:26:09.966Z,17.60
2018-05-15T08:28:38.292Z,16.57
2018-05-15T08:31:05.907Z,18.03
2018-05-15T08:33:34.454Z,17.40
2018-05-15T08:36:01.990Z,16.60
2018-05-15T08:38:29.532Z,16.00
2018-05-15T08:40:57.205Z,16.43
2018-05-15T08:43:24.732Z,15.73
2018-05-15T08:45:52.285Z,14.30
2018-05-15T08:48:20.584Z,15.20
2018-05-15T08:50:48.117Z,14.60
2018-05-15T08:53:15.681Z,14.47
2018-05-15T08:55:43.250Z,14.13
2018-05-15T08:58:12.738Z,13.47
2018-05-15T09:00:40.265Z,13.03
2018-05-15T09:03:07.819Z,13.33
2018-05-15T09:05:35.370Z,13.70
2018-05-15T09:08:02.929Z,14.43
2018-05-15T09:10:31.425Z,13.50
2018-05-15T09:12:58.981Z,13.00
2018-05-15T09:15:27.493Z,12.87
2018-05-15T09:17:55.831Z,12.40
2018-05-15T09:20:23.393Z,12.70
2018-05-15T09:22:50.958Z,11.90
2018-05-15T09:25:18.496Z,13.30
2018-05-15T09:27:46.039Z,13.00
2018-05-15T09:30:13.606Z,13.67
2018-05-15T09:32:41.175Z,12.53
2018-05-15T09:35:08.734Z,13.77
2018-05-15T09:37:36.276Z,13.10
2018-05-15T09:40:03.995Z,14.07
2018-05-15T09:42:31.569Z,15.93
2018-05-15T09:44:59.159Z,16.00
2018-05-15T09:47:26.710Z,14.43
2018-05-15T09:49:54.281Z,14.60
2018-05-15T09:52:21.929Z,14.47
2018-05-15T09:54:49.494Z,14.73
2018-05-15T09:57:17.037Z,16.03
2018-05-15T09:59:45.332Z,15.63
2018-05-15T10:02:12.897Z,14.33
2018-05-15T10:04:40.473Z,14.40
2018-05-15T10:07:08.170Z,14.27
2018-05-15T10:09:35.820Z,15.83
2018-05-15T10:12:03.747Z,15.10
2018-05-15T10:14:32.253Z,13.60
2018-05-15T10:17:01.228Z,14.00
2018-05-15T10:19:30.152Z,13.50
2018-05-15T10:21:59.799Z,13.70
2018-05-15T10:24:29.178Z,13.27
2018-05-15T10:26:57.645Z,13.60
2018-05-15T10:29:25.210Z,13.50
2018-05-15T10:31:52.745Z,13.10
2018-05-15T10:34:20.302Z,13.27
2018-05-15T10:36:47.833Z,13.63
2018-05-15T10:39:15.373Z,13.23
2018-05-15T10:41:42.937Z,13.37
2018-05-15T10:44:12.206Z,12.30
2018-05-15T10:46:41.728Z,13.13
2018-05-15T10:49:09.278Z,13.27
2018-05-15T10:51:36.837Z,13.00
2018-05-15T10:54:04.358Z,14.40
2018-05-15T10:56:31.909Z,12.50
2018-05-15T10:58:59.430Z,13.20
2018-05-15T11:01:26.957Z,15.10
2018-05-15T11:03:54.513Z,12.60
2018-05-15T11:06:22.046Z,12.80
2018-05-15T11:08:49.601Z,13.10
2018-05-15T11:11:17.141Z,13.23
2018-05-15T11:13:46.675Z,12.80
2018-05-15T11:16:14.242Z,12.60
2018-05-15T11:18:41.824Z,11.80
2018-05-15T11:21:21.221Z,13.83
2018-05-15T11:26:50.591Z,12.80
2018-05-15T11:29:19.633Z,12.97
2018-05-15T11:31:47.169Z,13.67
2018-05-15T11:34:15.229Z,13.30
2018-05-15T11:36:43.569Z,13.00
2018-05-15T11:39:11.918Z,14.50
2018-05-15T11:41:39.507Z,14.63
2018-05-15T11:44:07.045Z,13.70
2018-05-15T11:46:35.541Z,13.63
2018-05-15T11:49:03.943Z,13.97
2018-05-15T11:51:31.569Z,14.37
2018-05-15T11:53:58.297Z,12.70
2018-05-15T11:56:25.856Z,13.80
2018-05-15T11:58:54.389Z,12.90
2018-05-15T12:01:21.924Z,14.37
2018-05-15T12:03:49.550Z,14.73
2018-05-15T12:06:17.074Z,14.83
2018-05-15T12:08:44.637Z,14.30
2018-05-15T12:11:12.941Z,14.17
2018-05-15T12:13:40.473Z,14.93
2018-05-15T12:16:08.934Z,15.50
2018-05-15T12:18:36.493Z,14.87
2018-05-15T12:21:04.102Z,14.87
2018-05-15T12:23:32.593Z,16.13
2018-05-15T12:26:00.158Z,15.80
2018-05-15T12:28:27.682Z,17.53
2018-05-15T12:30:56.022Z,16.27
2018-05-15T12:33:23.551Z,16.27
2018-05-15T12:35:51.138Z,14.23
2018-05-15T12:38:18.670Z,12.70
2018-05-15T12:40:47.418Z,11.53
2018-05-15T12:43:15.941Z,18.33
2018-05-15T12:45:44.432Z,13.87
2018-05-15T12:48:12.026Z,13.40
2018-05-15T12:50:39.544Z,15.27
2018-05-15T12:53:07.089Z,16.63
2018-05-15T12:55:34.648Z,15.93
2018-05-15T12:58:02.190Z,17.20
2018-05-15T13:00:29.742Z,15.10
2018-05-15T13:02:58.039Z,15.83
2018-05-15T13:05:25.606Z,15.90
2018-05-15T13:07:54.103Z,17.10
2018-05-15T13:10:21.645Z,18.93
2018-05-15T13:12:49.205Z,20.17
2018-05-15T13:15:16.746Z,20.23
2018-05-15T13:17:44.299Z,22.37
2018-05-15T13:20:11.828Z,25.13
2018-05-15T13:22:39.387Z,24.57
2018-05-15T13:25:07.899Z,25.80
2018-05-15T13:27:35.444Z,26.23
2018-05-15T13:30:03.769Z,27.53
2018-05-15T13:32:31.314Z,25.83
2018-05-15T13:34:58.880Z,20.90
2018-05-15T13:37:26.416Z,21.57
2018-05-15T13:39:53.963Z,24.20
2018-05-15T13:42:21.518Z,21.90
2018-05-15T13:44:49.807Z,19.97
2018-05-15T13:47:17.361Z,18.50
2018-05-15T13:49:44.890Z,19.47
2018-05-15T13:52:13.444Z,18.97
2018-05-15T13:54:41.002Z,17.10
2018-05-15T13:57:08.571Z,19.87
2018-05-15T13:59:36.092Z,18.50
2018-05-15T14:02:12.134Z,18.33
2018-05-15T14:04:41.437Z,17.30
2018-05-15T14:07:09.030Z,17.27
2018-05-15T14:09:37.566Z,17.20
2018-05-15T14:12:05.876Z,16.60
2018-05-15T14:14:33.435Z,14.10
2018-05-15T14:17:00.986Z,11.47
2018-05-15T14:19:28.557Z,10.87
2018-05-15T14:21:56.081Z,9.23
2018-05-15T14:24:24.399Z,9.53
2018-05-15T14:26:51.938Z,8.57
2018-05-15T14:29:19.471Z,8.17
2018-05-15T14:31:47.797Z,8.63
2018-05-15T14:34:15.320Z,9.07
2018-05-15T14:36:43.645Z,9.07
2018-05-15T14:39:11.176Z,8.23
2018-05-15T14:41:50.629Z,8.90
2018-05-15T14:44:18.153Z,7.80
2018-05-15T14:46:46.660Z,7.63
2018-05-15T14:49:14.182Z,7.33
2018-05-15T14:51:43.417Z,7.20
2018-05-15T14:54:10.972Z,7.50
2018-05-15T14:56:38.508Z,7.73
2018-05-15T14:59:06.826Z,6.90
2018-05-15T15:01:34.361Z,8.40
2018-05-15T15:04:01.916Z,9.30
2018-05-15T15:06:29.447Z,8.60
2018-05-15T15:08:57.770Z,8.20
2018-05-15T15:11:25.329Z,8.03
2018-05-15T15:13:52.844Z,8.50
2018-05-15T15:16:21.157Z,9.40
2018-05-15T15:18:48.685Z,10.23
2018-05-15T15:21:16.228Z,10.67
2018-05-15T15:23:44.702Z,9.40
2018-05-15T15:26:12.420Z,12.70
2018-05-15T15:28:39.974Z,10.53
2018-05-15T15:31:07.501Z,12.53
2018-05-15T15:33:35.820Z,12.40
2018-05-15T15:36:03.364Z,13.70
2018-05-15T15:38:30.948Z,14.97
2018-05-15T15:40:58.595Z,13.13
2018-05-15T15:43:28.882Z,13.77
2018-05-15T15:45:57.180Z,9.50
2018-05-15T15:48:24.741Z,8.13
2018-05-15T15:50:52.312Z,10.97
2018-05-15T15:53:19.860Z,7.70
2018-05-15T15:55:47.444Z,8.13
2018-05-15T15:58:14.978Z,8.97
2018-05-15T16:00:42.527Z,8.27
2018-05-15T16:03:10.055Z,7.73
2018-05-15T16:05:37.609Z,7.00
2018-05-15T16:08:05.141Z,7.10
2018-05-15T16:10:32.701Z,6.17
2018-05-15T16:13:00.250Z,6.47
2018-05-15T16:15:27.775Z,6.20
2018-05-15T16:17:55.342Z,5.70
2018-05-15T16:20:23.759Z,6.33
2018-05-15T16:22:51.403Z,6.23
2018-05-15T16:25:18.919Z,6.23
2018-05-15T16:27:48.425Z,5.90
2018-05-15T16:30:15.953Z,6.40
2018-05-15T16:32:43.481Z,5.40
2018-05-15T16:35:11.048Z,5.70
2018-05-15T16:37:38.656Z,5.57
2018-05-15T16:40:07.113Z,6.70
2018-05-15T16:42:35.598Z,6.03
2018-05-15T16:45:03.157Z,5.90
2018-05-15T16:47:30.730Z,7.53
2018-05-15T16:49:58.233Z,6.60
2018-05-15T16:52:25.797Z,5.90
2018-05-15T16:54:53.321Z,5.43
2018-05-15T16:57:20.868Z,5.60
2018-05-15T16:59:48.389Z,5.33
2018-05-15T17:02:16.841Z,5.43
2018-05-15T17:04:44.394Z,5.20
2018-05-15T17:07:12.105Z,5.20
2018-05-15T17:09:39.673Z,5.33
2018-05-15T17:12:07.197Z,5.90
2018-05-15T17:14:34.755Z,6.30
2018-05-15T17:17:02.290Z,5.90
2018-05-15T17:19:29.842Z,7.23
2018-05-15T17:21:57.994Z,6.70
2018-05-15T17:24:26.330Z,8.20
2018-05-15T17:26:53.858Z,8.27
2018-05-15T17:29:21.388Z,6.80
2018-05-15T17:31:49.710Z,6.73
2018-05-15T17:34:17.285Z,6.70
2018-05-15T17:36:45.790Z,8.33
2018-05-15T17:39:13.341Z,9.03
2018-05-15T17:41:41.833Z,10.87
2018-05-15T17:44:09.415Z,9.83
2018-05-15T17:46:38.911Z,9.40
2018-05-15T17:49:06.470Z,8.23
2018-05-15T17:51:36.760Z,8.17
2018-05-15T17:54:04.356Z,7.90
2018-05-15T17:56:31.880Z,8.80
2018-05-15T17:58:59.428Z,7.13
2018-05-15T18:01:27.031Z,7.27
2018-05-15T18:03:54.585Z,8.10
2018-05-15T18:06:22.108Z,7.20
2018-05-15T18:08:49.644Z,7.40
2018-05-15T18:11:18.192Z,6.23
2018-05-15T18:13:45.718Z,8.10
2018-05-15T18:16:13.281Z,6.40
2018-05-15T18:18:40.842Z,6.13
2018-05-15T18:21:08.467Z,6.40
2018-05-15T18:23:35.946Z,7.03
2018-05-15T18:26:03.583Z,6.60
2018-05-15T18:28:31.147Z,5.93
2018-05-15T18:30:58.793Z,6.07
2018-05-15T18:33:26.356Z,6.70
2018-05-15T18:35:53.892Z,6.67
2018-05-15T18:38:22.226Z,6.83
2018-05-15T18:40:49.791Z,6.93
2018-05-15T18:43:17.336Z,6.37
2018-05-15T18:45:45.888Z,7.50
2018-05-15T18:48:13.437Z,6.80
2018-05-15T18:50:40.969Z,7.07
2018-05-15T18:53:09.127Z,7.40
2018-05-15T18:55:37.546Z,7.70
2018-05-15T18:58:05.163Z,7.10
2018-05-15T19:00:32.725Z,8.20
2018-05-15T19:03:00.249Z,6.97
2018-05-15T19:05:27.797Z,7.10
2018-05-15T19:07:55.401Z,8.63
2018-05-15T19:10:22.913Z,7.70
2018-05-15T19:12:51.433Z,5.93
2018-05-15T19:15:18.981Z,6.23
2018-05-15T19:17:46.498Z,7.87
2018-05-15T19:20:14.866Z,6.40
2018-05-15T19:22:43.363Z,7.10
2018-05-15T19:25:10.885Z,6.83
2018-05-15T19:27:40.377Z,16.93
2018-05-15T19:30:07.904Z,6.90
2018-05-15T19:32:38.415Z,6.90
2018-05-15T19:35:07.892Z,7.60
2018-05-15T19:37:35.425Z,6.90
2018-05-15T19:40:08.649Z,7.03
2018-05-15T19:42:36.198Z,8.37
2018-05-15T19:45:03.740Z,5.87
2018-05-15T19:47:32.117Z,7.10
2018-05-15T19:49:59.650Z,4.70
2018-05-15T19:52:27.235Z,3.90
2018-05-15T19:54:55.765Z,6.03
2018-05-15T19:57:23.301Z,6.90
2018-05-15T19:59:50.851Z,5.17
2018-05-15T20:02:18.375Z,3.80
2018-05-15T20:04:45.933Z,3.70
2018-05-15T20:07:13.458Z,3.70
2018-05-15T20:09:41.768Z,10.23
2018-05-15T20:12:10.286Z,5.27
2018-05-15T20:14:38.152Z,5.90
2018-05-15T20:17:05.707Z,7.63
2018-05-15T20:19:33.940Z,7.13
2018-05-15T20:22:01.479Z,7.40
2018-05-15T20:24:29.011Z,7.00
2018-05-15T20:26:56.581Z,7.43
2018-05-15T20:29:25.115Z,7.67
2018-05-15T20:31:52.670Z,8.60
2018-05-15T20:34:20.225Z,8.87
2018-05-15T20:36:47.760Z,6.97
2018-05-15T20:39:16.180Z,6.00
2018-05-15T20:41:46.076Z,5.03
2018-05-15T20:44:13.598Z,5.07
2018-05-15T20:46:41.148Z,4.23
2018-05-15T20:49:08.669Z,4.27
2018-05-15T20:51:36.193Z,4.40
2018-05-15T20:54:03.738Z,4.57
2018-05-15T20:56:32.225Z,4.23
2018-05-15T20:58:59.774Z,5.20
2018-05-15T21:01:28.065Z,4.37
2018-05-15T21:03:55.623Z,3.80
2018-05-15T21:06:23.159Z,3.70
2018-05-15T21:08:50.718Z,4.03
2018-05-15T21:11:20.223Z,3.87
2018-05-15T21:13:47.774Z,4.00
2018-05-15T21:16:16.089Z,4.43
2018-05-15T21:18:43.640Z,5.60
2018-05-15T21:21:11.194Z,4.53
2018-05-15T21:23:39.504Z,4.40
2018-05-15T21:26:07.259Z,5.40
2018-05-15T21:28:34.805Z,5.93
2018-05-15T21:31:02.358Z,5.40
2018-05-15T21:33:31.863Z,8.40
2018-05-15T21:35:59.418Z,6.50
2018-05-15T21:38:28.037Z,6.40
2018-05-15T21:40:55.609Z,8.17
2018-05-15T21:43:23.142Z,5.93
2018-05-15T21:45:50.701Z,5.40
2018-05-15T21:48:18.225Z,4.73
2018-05-15T21:50:47.575Z,5.00
2018-05-15T21:53:15.141Z,5.87
2018-05-15T21:55:42.664Z,6.10
2018-05-15T21:58:10.185Z,5.53
2018-05-15T22:00:37.988Z,6.00
2018-05-15T22:03:05.571Z,5.80
2018-05-15T22:05:33.124Z,5.47
2018-05-15T22:08:00.668Z,5.20
2018-05-15T22:10:28.189Z,5.40
2018-05-15T22:13:09.628Z,4.80
2018-05-15T22:15:48.922Z,4.97
2018-05-15T22:18:28.124Z,3.90
2018-05-15T22:21:07.548Z,4.83
2018-05-15T22:23:34.596Z,6.67
2018-05-15T22:26:02.157Z,11.23
2018-05-15T22:28:29.683Z,6.00
2018-05-15T22:30:57.228Z,5.77
2018-05-15T22:33:24.753Z,5.63
2018-05-15T22:35:52.281Z,6.00
2018-05-15T22:38:19.825Z,6.30
2018-05-15T22:40:48.309Z,6.20
2018-05-15T22:43:15.871Z,6.33
2018-05-15T22:45:43.399Z,6.63
2018-05-15T22:48:10.957Z,4.83
2018-05-15T22:50:38.493Z,4.50
2018-05-15T22:53:06.058Z,4.97
2018-05-15T22:55:34.528Z,5.50
2018-05-15T22:58:04.699Z,4.87
2018-05-15T23:00:32.273Z,4.10
2018-05-15T23:02:59.950Z,4.77
2018-05-15T23:05:27.522Z,4.60
2018-05-15T23:07:55.044Z,5.50
2018-05-15T23:10:22.589Z,5.20
2018-05-15T23:12:51.194Z,5.23
2018-05-15T23:15:18.727Z,5.03
2018-05-15T23:17:46.286Z,5.13
2018-05-15T23:20:13.809Z,4.83
2018-05-15T23:22:43.186Z,5.40
2018-05-15T23:25:11.668Z,4.77
2018-05-15T23:27:39.235Z,5.87
2018-05-15T23:30:06.775Z,5.33
2018-05-15T23:32:34.322Z,4.90
2018-05-15T23:35:02.473Z,4.90
2018-05-15T23:37:30.005Z,4.80
2018-05-15T23:39:58.331Z,5.37
2018-05-15T23:42:25.861Z,5.43
2018-05-15T23:44:54.177Z,5.57
2018-05-15T23:47:21.696Z,5.90
2018-05-15T23:49:50.017Z,6.20
2018-05-15T23:52:17.538Z,7.20
2018-05-15T23:54:45.100Z,7.70
2018-05-15T23:57:12.661Z,6.20
2018-05-15T23:59:40.185Z,5.37
